Time;durP1;ratioP1;P1;durP2;ratioP2;P2;SDS_P1;SDS_P2;PMS_P1;PMS_P2;Temp;Humidity;BMP_temperature;BMP_pressure;BME280_temperature;BME280_humidity;BME280_pressure;Samples;Min_cycle;Max_cycle;Signal;HPM_P1;HPM_P2
2022/03/24 00:01:26;;;;;;;15.93;8.77;;;;;;;3.06;63.02;99863.31;5028865;28;20030;-72
2022/03/24 00:03:51;;;;;;;17.63;9.18;;;;;;;3.05;62.80;99856.28;5022827;28;20025;-71
2022/03/24 00:06:17;;;;;;;18.77;9.40;;;;;;;2.95;62.76;99877.59;5030581;28;20041;-71
2022/03/24 00:08:42;;;;;;;20.08;9.85;;;;;;;2.84;63.94;99886.50;5031011;28;20108;-71
2022/03/24 00:11:08;;;;;;;22.02;9.15;;;;;;;2.84;64.22;99886.50;5031270;28;20022;-71
2022/03/24 00:13:33;;;;;;;19.13;9.90;;;;;;;2.77;63.90;99873.78;5019852;28;20021;-72
2022/03/24 00:15:58;;;;;;;17.95;9.32;;;;;;;2.63;64.36;99870.44;5035012;28;20028;-71
2022/03/24 00:18:25;;;;;;;20.65;10.25;;;;;;;2.53;64.57;99882.84;5030264;28;20685;-68
2022/03/24 00:20:51;;;;;;;20.52;10.05;;;;;;;2.23;65.96;99863.97;5021696;28;20036;-68
2022/03/24 00:23:16;;;;;;;23.30;11.35;;;;;;;2.29;66.84;99896.38;5024100;28;20375;-68
2022/03/24 00:25:41;;;;;;;26.23;12.35;;;;;;;2.24;67.89;99893.22;5030535;28;20065;-68
2022/03/24 00:28:07;;;;;;;22.42;11.63;;;;;;;2.17;68.01;99898.22;5015808;28;20111;-68
2022/03/24 00:30:32;;;;;;;25.17;11.75;;;;;;;2.09;68.08;99891.78;5024645;28;20025;-68
2022/03/24 00:32:57;;;;;;;24.30;11.57;;;;;;;1.97;68.15;99875.78;5027074;28;20033;-68
2022/03/24 00:35:24;;;;;;;22.42;11.02;;;;;;;2.08;67.95;99892.75;5024002;28;20026;-68
2022/03/24 00:37:50;;;;;;;23.55;10.50;;;;;;;2.12;68.59;99903.09;5025817;28;20042;-68
2022/03/24 00:40:16;;;;;;;23.60;11.10;;;;;;;2.54;67.96;99895.25;5030922;28;20018;-68
2022/03/24 00:42:42;;;;;;;24.48;10.93;;;;;;;2.64;67.25;99884.63;5023605;28;20478;-68
2022/03/24 00:45:14;;;;;;;38.72;11.15;;;;;;;2.71;67.15;99883.16;5024618;28;20104;-68
2022/03/24 00:47:41;;;;;;;20.35;10.88;;;;;;;2.14;67.27;99807.69;5012437;28;20104;-68
2022/03/24 00:50:10;;;;;;;19.85;10.70;;;;;;;2.54;67.42;99883.69;5023299;28;20072;-68
2022/03/24 00:52:41;;;;;;;23.15;10.60;;;;;;;2.54;67.72;99889.03;5018006;28;20411;-68
2022/03/24 00:55:10;;;;;;;22.20;10.23;;;;;;;2.43;68.17;99873.88;5028235;28;20372;-68
2022/03/24 00:57:35;;;;;;;20.23;10.35;;;;;;;2.32;68.55;99880.09;5024752;28;20022;-69
2022/03/24 01:00:01;;;;;;;28.65;11.48;;;;;;;2.41;68.20;99883.84;5022347;28;20025;-68
2022/03/24 01:02:28;;;;;;;20.60;9.88;;;;;;;2.53;67.38;99879.34;5016753;28;20147;-68
2022/03/24 01:04:55;;;;;;;20.85;10.02;;;;;;;2.45;67.19;99841.72;5021576;28;20025;-68
2022/03/24 01:07:20;;;;;;;23.92;11.27;;;;;;;2.70;66.74;99878.81;5019683;28;20051;-68
2022/03/24 01:09:46;;;;;;;20.00;11.30;;;;;;;2.60;67.27;99864.50;5031599;28;20459;-68
2022/03/24 01:12:12;;;;;;;20.63;11.07;;;;;;;2.59;66.93;99878.81;5027694;28;20030;-69
2022/03/24 01:14:38;;;;;;;17.42;9.18;;;;;;;2.44;66.81;99874.72;5029512;28;20024;-69
2022/03/24 01:17:04;;;;;;;16.10;8.95;;;;;;;2.33;67.30;99860.44;5017613;28;20055;-69
2022/03/24 01:19:31;;;;;;;18.80;9.85;;;;;;;2.25;67.32;99859.34;5017968;28;20036;-69
2022/03/24 01:21:56;;;;;;;18.40;9.82;;;;;;;2.11;68.01;99861.31;5013550;28;20034;-68
2022/03/24 01:24:21;;;;;;;18.92;10.23;;;;;;;1.70;68.62;99827.25;5014214;28;20044;-68
2022/03/24 01:26:46;;;;;;;23.02;11.27;;;;;;;1.59;69.12;99862.78;5015104;28;20036;-69
2022/03/24 01:29:13;;;;;;;24.27;10.60;;;;;;;1.44;70.64;99859.50;5015142;28;20534;-68
2022/03/24 01:31:42;;;;;;;20.13;10.68;;;;;;;1.16;71.36;99836.78;5011077;28;20075;-69
2022/03/24 01:34:07;;;;;;;20.38;11.35;;;;;;;1.22;71.54;99864.78;5014920;28;20033;-69
2022/03/24 01:36:33;;;;;;;22.48;10.98;;;;;;;1.13;71.99;99852.16;5020102;28;20041;-69
2022/03/24 01:38:58;;;;;;;23.52;11.93;;;;;;;1.03;72.23;99834.22;5015815;28;20060;-70
2022/03/24 01:41:23;;;;;;;23.70;11.05;;;;;;;1.24;73.33;99860.19;5015822;28;20483;-70
2022/03/24 01:43:49;;;;;;;23.50;11.38;;;;;;;1.01;72.72;99812.16;5017136;28;20036;-69
2022/03/24 01:46:20;;;;;;;21.80;10.35;;;;;;;1.23;72.73;99858.47;5015121;28;20044;-69
2022/03/24 01:48:45;;;;;;;22.55;10.93;;;;;;;1.23;72.30;99845.16;5014312;28;20617;-69
2022/03/24 01:51:10;;;;;;;24.35;10.80;;;;;;;1.17;73.08;99851.81;5020587;28;20100;-71
2022/03/24 01:53:35;;;;;;;22.85;10.93;;;;;;;0.94;72.81;99815.41;5023556;28;20395;-71
2022/03/24 01:56:01;;;;;;;24.77;11.95;;;;;;;0.86;73.84;99816.88;5025682;28;20033;-69
2022/03/24 01:58:27;;;;;;;20.85;11.05;;;;;;;1.15;73.92;99848.41;5019131;28;20033;-69
2022/03/24 02:00:52;;;;;;;23.38;11.48;;;;;;;1.16;73.86;99849.28;5024412;28;20395;-69
2022/03/24 02:03:20;;;;;;;29.77;11.30;;;;;;;1.30;73.82;99854.38;5028240;28;20035;-69
2022/03/24 02:05:45;;;;;;;22.17;11.77;;;;;;;1.48;73.14;99847.63;5027112;28;20111;-69
2022/03/24 02:08:10;;;;;;;22.42;10.50;;;;;;;1.15;73.24;99788.94;5027306;28;20053;-69
2022/03/24 02:10:36;;;;;;;21.95;11.30;;;;;;;1.53;73.36;99850.78;5027538;28;20079;-69
2022/03/24 02:13:03;;;;;;;25.92;12.70;;;;;;;1.41;73.09;99824.22;5026369;28;20036;-70
2022/03/24 02:15:28;;;;;;;27.13;11.73;;;;;;;1.42;72.85;99824.13;5025271;28;20026;-69
2022/03/24 02:17:54;;;;;;;28.75;12.07;;;;;;;1.40;73.40;99838.53;5024727;28;20044;-69
2022/03/24 02:20:20;;;;;;;26.10;11.80;;;;;;;1.37;73.40;99850.28;5025186;28;20037;-69
2022/03/24 02:22:47;;;;;;;23.80;11.63;;;;;;;1.33;73.27;99843.47;5024836;28;20391;-69
2022/03/24 02:25:13;;;;;;;20.85;10.68;;;;;;;1.15;73.10;99827.09;5024479;28;20180;-71
2022/03/24 02:27:39;;;;;;;23.00;10.68;;;;;;;1.07;73.82;99810.84;5024393;28;20550;-69
2022/03/24 02:30:06;;;;;;;20.67;10.52;;;;;;;1.15;73.89;99834.25;5014938;28;20931;-70
2022/03/24 02:32:31;;;;;;;20.08;10.10;;;;;;;1.18;74.24;99834.00;5015166;28;20034;-70
2022/03/24 02:34:57;;;;;;;22.77;10.70;;;;;;;0.99;74.54;99827.41;5021282;28;20039;-70
2022/03/24 02:37:25;;;;;;;23.55;11.95;;;;;;;1.04;75.24;99843.91;5022901;28;20025;-70
2022/03/24 02:39:53;;;;;;;22.20;11.23;;;;;;;1.18;74.42;99842.88;5024220;28;20121;-70
2022/03/24 02:42:22;;;;;;;21.65;11.25;;;;;;;1.00;74.04;99822.97;5021043;28;20489;-71
2022/03/24 02:44:51;;;;;;;;;;;;;;;1.12;74.80;99845.13;5023209;28;20071;-70
2022/03/24 02:47:17;;;;;;;21.85;10.43;;;;;;;0.91;74.86;99816.50;5026642;28;19921;-70
2022/03/24 02:49:45;;;;;;;22.02;11.40;;;;;;;0.82;75.14;99831.38;5023417;28;20087;-70
2022/03/24 02:52:10;;;;;;;22.58;11.02;;;;;;;0.88;74.60;99838.03;5023827;28;20029;-70
2022/03/24 02:54:37;;;;;;;20.58;10.65;;;;;;;0.70;75.31;99839.44;5021680;28;20127;-70
2022/03/24 02:57:03;;;;;;;23.73;11.57;;;;;;;0.76;76.49;99841.63;5025296;28;20068;-70
2022/03/24 02:59:29;;;;;;;24.73;10.82;;;;;;;0.86;75.90;99839.97;5017787;28;20026;-70
2022/03/24 03:01:59;;;;;;;21.33;10.80;;;;;;;0.88;75.89;99851.38;5022248;28;20112;-70
2022/03/24 03:04:26;;;;;;;21.38;10.02;;;;;;;0.77;76.17;99848.66;5022448;28;20116;-69
2022/03/24 03:06:52;;;;;;;19.83;10.23;;;;;;;0.65;76.04;99853.97;5025587;28;20025;-69
2022/03/24 03:09:18;;;;;;;19.15;10.45;;;;;;;0.48;75.92;99837.53;5024160;28;20026;-68
2022/03/24 03:11:45;;;;;;;23.05;10.93;;;;;;;0.48;75.96;99851.69;5024217;28;20939;-68
2022/03/24 03:14:12;;;;;;;19.65;9.75;;;;;;;0.43;77.12;99857.34;5024907;28;20051;-69
2022/03/24 03:16:39;;;;;;;15.90;8.90;;;;;;;0.44;77.37;99852.84;5025994;28;20025;-69
2022/03/24 03:19:04;;;;;;;20.65;10.27;;;;;;;0.38;77.32;99861.31;5024499;28;20025;-68
2022/03/24 03:21:30;;;;;;;21.58;10.80;;;;;;;0.33;77.18;99861.63;5023462;28;20029;-68
2022/03/24 03:23:55;;;;;;;20.45;9.88;;;;;;;0.22;76.82;99858.91;5021543;28;20108;-69
2022/03/24 03:26:23;;;;;;;21.02;10.70;;;;;;;0.14;77.94;99854.16;5022747;28;20056;-69
2022/03/24 03:28:52;;;;;;;18.67;9.88;;;;;;;0.08;78.21;99829.78;5025160;28;20025;-69
2022/03/24 03:31:19;;;;;;;20.20;10.05;;;;;;;0.26;78.17;99865.69;5033552;28;20081;-68
2022/03/24 03:33:45;;;;;;;23.40;10.02;;;;;;;0.14;77.35;99862.13;5036262;28;20042;-68
2022/03/24 03:36:10;;;;;;;20.15;10.32;;;;;;;0.03;77.32;99866.50;5038488;28;20028;-68
2022/03/24 03:38:35;;;;;;;21.92;10.45;;;;;;;0.06;78.84;99861.00;5030175;28;20090;-68
2022/03/24 03:41:02;;;;;;;24.50;10.90;;;;;;;-0.02;79.24;99837.59;5026936;28;20026;-68
2022/03/24 03:43:28;;;;;;;23.63;9.85;;;;;;;0.14;79.56;99848.81;5033857;28;20041;-68
2022/03/24 03:45:53;;;;;;;21.55;10.50;;;;;;;0.22;79.59;99873.06;5031365;28;20031;-68
2022/03/24 03:48:18;;;;;;;22.40;11.20;;;;;;;0.42;77.93;99868.97;5031919;28;20059;-68
2022/03/24 03:50:43;;;;;;;18.80;10.10;;;;;;;0.39;77.57;99860.34;5034979;28;20025;-69
2022/03/24 03:53:09;;;;;;;20.60;10.45;;;;;;;0.00;77.88;99849.00;5035480;28;20021;-68
2022/03/24 03:55:37;;;;;;;26.88;10.32;;;;;;;0.05;78.39;99868.09;5049225;28;20419;-68
2022/03/24 03:58:04;;;;;;;23.45;10.25;;;;;;;0.07;79.30;99874.16;5026533;28;20124;-67
2022/03/24 04:03:13;;;;;;;22.75;10.85;;;;;;;0.22;79.28;99862.41;5032702;28;20391;-69
2022/03/24 04:05:38;;;;;;;24.85;10.68;;;;;;;0.23;79.45;99857.94;5028162;28;20029;-69
2022/03/24 04:08:07;;;;;;;23.80;10.75;;;;;;;0.10;78.25;99873.94;5026278;28;20028;-70
2022/03/24 04:10:33;;;;;;;23.27;10.70;;;;;;;-0.10;78.75;99837.31;5021325;28;20021;-68
2022/03/24 04:12:59;;;;;;;21.05;10.90;;;;;;;-0.06;79.21;99868.03;5022026;28;20573;-68
2022/03/24 04:15:25;;;;;;;22.50;10.82;;;;;;;0.03;78.18;99871.84;5023294;28;20025;-69
2022/03/24 04:17:53;;;;;;;26.08;10.65;;;;;;;-0.01;78.80;99873.88;5027107;28;20371;-70
2022/03/24 04:20:23;;;;;;;21.55;10.15;;;;;;;-0.17;78.74;99867.94;5021811;28;20440;-69
2022/03/24 04:22:52;;;;;;;25.98;11.02;;;;;;;-0.27;78.65;99844.66;5027906;28;20490;-67
2022/03/24 04:25:19;;;;;;;24.13;10.98;;;;;;;-0.36;79.84;99865.75;5028108;28;20030;-68
2022/03/24 04:27:44;;;;;;;23.77;11.57;;;;;;;-0.43;80.24;99844.03;5027232;28;20155;-68
2022/03/24 04:30:12;;;;;;;22.33;11.30;;;;;;;-0.34;80.92;99875.31;5020221;28;20104;-68
2022/03/24 04:32:40;;;;;;;20.05;11.32;;;;;;;-0.26;80.18;99878.28;5029346;28;20586;-68
2022/03/24 04:35:06;;;;;;;24.88;11.65;;;;;;;-0.43;79.79;99844.03;5028353;28;20021;-68
2022/03/24 04:37:32;;;;;;;23.50;11.32;;;;;;;-0.32;79.38;99878.69;5022543;28;20032;-68
2022/03/24 04:39:57;;;;;;;21.30;11.27;;;;;;;-0.46;79.95;99876.16;5024623;28;20025;-68
2022/03/24 04:42:22;;;;;;;23.42;11.45;;;;;;;-0.69;80.44;99854.69;5021169;28;20041;-68
2022/03/24 04:44:48;;;;;;;23.00;10.93;;;;;;;-0.66;80.72;99864.25;5024577;28;20030;-68
2022/03/24 04:47:15;;;;;;;18.65;10.27;;;;;;;-0.75;81.48;99865.75;5029767;28;20108;-68
2022/03/24 04:49:41;;;;;;;22.33;10.63;;;;;;;-0.46;82.44;99884.13;5024398;28;20416;-69
2022/03/24 04:52:07;;;;;;;22.85;11.60;;;;;;;-0.63;81.18;99857.88;5027212;28;20147;-75
2022/03/24 04:54:32;;;;;;;20.00;10.52;;;;;;;-0.66;81.00;99858.94;5027860;28;20407;-77
2022/03/24 04:56:58;;;;;;;21.40;10.85;;;;;;;-0.73;79.50;99855.88;5043212;28;20379;-75
2022/03/24 04:59:23;;;;;;;23.42;10.93;;;;;;;-0.80;80.21;99867.84;5020460;28;20514;-74
2022/03/24 05:01:49;;;;;;;21.77;11.13;;;;;;;-0.54;80.90;99878.50;5025029;28;20021;-78
2022/03/24 05:04:15;;;;;;;21.55;10.82;;;;;;;-0.74;81.06;99850.63;5029630;28;20030;-77
2022/03/24 05:06:43;;;;;;;22.25;11.43;;;;;;;-0.70;81.00;99868.94;5032525;28;20021;-76
2022/03/24 05:09:09;;;;;;;21.48;10.90;;;;;;;-0.64;81.82;99883.59;5041429;28;20025;-78
2022/03/24 05:11:34;;;;;;;19.83;10.68;;;;;;;-0.57;82.14;99894.69;5044385;28;20044;-77
2022/03/24 05:14:01;;;;;;;23.35;11.27;;;;;;;-0.79;81.97;99864.22;5038676;28;20093;-68
2022/03/24 05:16:27;;;;;;;25.05;11.02;;;;;;;-0.64;81.68;99893.38;5028253;28;20037;-74
2022/03/24 05:18:53;;;;;;;23.00;11.27;;;;;;;-0.50;81.60;99891.50;5031255;28;20029;-75
2022/03/24 05:21:19;;;;;;;22.73;11.82;;;;;;;-0.66;81.45;99861.59;5028376;28;20376;-75
2022/03/24 05:23:44;;;;;;;26.30;11.18;;;;;;;-0.33;82.39;99892.97;5030720;28;20025;-74
2022/03/24 05:26:10;;;;;;;20.38;11.15;;;;;;;-0.31;81.85;99906.16;5031810;28;20075;-78
2022/03/24 05:28:35;;;;;;;25.13;11.15;;;;;;;-0.26;80.96;99904.03;5023887;28;20026;-74
2022/03/24 05:31:00;;;;;;;24.08;10.93;;;;;;;-0.31;80.76;99885.72;5030413;28;20101;-77
2022/03/24 05:33:26;;;;;;;24.05;11.30;;;;;;;-0.20;80.13;99884.97;5031543;28;20356;-75
2022/03/24 05:35:51;;;;;;;25.02;10.30;;;;;;;-0.25;79.66;99873.81;5034882;28;20271;-75
2022/03/24 05:38:17;;;;;;;21.88;9.73;;;;;;;-0.12;79.96;99889.75;5030401;28;20052;-72
2022/03/24 05:40:43;;;;;;;18.33;9.45;;;;;;;0.34;77.86;99911.28;5028517;28;20036;-76
2022/03/24 05:43:08;;;;;;;16.73;9.20;;;;;;;0.24;76.87;99858.78;5029189;28;20550;-80
2022/03/24 05:45:33;;;;;;;23.02;10.75;;;;;;;0.60;76.34;99909.38;5029018;28;20863;-71
2022/03/24 05:47:59;;;;;;;25.20;11.32;;;;;;;0.53;75.54;99878.81;5029626;28;20033;-78
2022/03/24 05:50:25;;;;;;;24.98;10.82;;;;;;;1.81;71.94;99910.00;5028222;28;20045;-76
2022/03/24 05:52:50;;;;;;;28.02;9.85;;;;;;;3.05;66.77;99899.06;5030242;28;20163;-76
2022/03/24 05:55:19;;;;;;;22.55;10.00;;;;;;;3.80;62.58;99857.00;5033833;28;20029;-76
2022/03/24 05:57:44;;;;;;;22.85;9.70;;;;;;;4.79;59.02;99882.09;5027072;28;20021;-76
2022/03/24 06:00:11;;;;;;;22.25;10.82;;;;;;;5.28;57.40;99866.84;5029424;28;20461;-77
2022/03/24 06:02:36;;;;;;;26.73;11.40;;;;;;;5.89;54.72;99826.16;5029904;28;20080;-76
2022/03/24 06:05:09;;;;;;;18.25;9.40;;;;;;;6.85;53.08;99873.28;5031753;28;20474;-77
2022/03/24 06:07:35;;;;;;;22.73;10.95;;;;;;;7.30;51.42;99846.25;5030481;28;20026;-75
2022/03/24 06:10:01;;;;;;;21.13;10.63;;;;;;;8.17;49.43;99875.91;5028378;28;20034;-74
2022/03/24 06:12:26;;;;;;;20.73;9.20;;;;;;;8.41;48.60;99873.34;5028526;28;20514;-68
2022/03/24 06:14:51;;;;;;;20.48;9.40;;;;;;;9.00;46.97;99876.00;5021730;28;20042;-73
2022/03/24 06:17:20;;;;;;;24.20;9.40;;;;;;;9.75;45.32;99870.44;5026016;28;20025;-73
2022/03/24 06:19:47;;;;;;;20.42;8.75;;;;;;;10.39;44.22;99885.81;5025248;28;20479;-72
2022/03/24 06:22:13;;;;;;;18.90;9.25;;;;;;;10.99;42.50;99887.00;5025067;28;20053;-72
2022/03/24 06:24:38;;;;;;;21.02;9.55;;;;;;;11.18;41.37;99868.41;5027537;28;22672;-76
2022/03/24 06:27:04;;;;;;;22.88;11.05;;;;;;;11.46;40.27;99889.53;5027968;28;20044;-74
2022/03/24 06:29:29;;;;;;;30.08;10.05;;;;;;;12.48;38.79;99868.13;5021680;28;20757;-72
2022/03/24 06:31:55;;;;;;;20.50;11.27;;;;;;;12.05;39.09;99873.41;5027138;28;20026;-71
2022/03/24 06:34:20;;;;;;;21.95;12.45;;;;;;;12.38;37.97;99891.16;5019698;28;20076;-73
2022/03/24 06:36:46;;;;;;;19.25;11.02;;;;;;;12.39;37.84;99861.13;5021091;28;20037;-72
2022/03/24 06:39:11;;;;;;;18.70;11.32;;;;;;;13.42;36.35;99888.19;5022023;28;20458;-72
2022/03/24 06:41:37;;;;;;;18.88;11.13;;;;;;;13.18;36.29;99878.50;5025361;28;20140;-74
2022/03/24 06:44:06;;;;;;;20.08;11.95;;;;;;;13.31;36.20;99889.56;5029123;28;20159;-73
2022/03/24 06:46:32;;;;;;;22.75;12.05;;;;;;;13.58;35.92;99875.13;5027296;28;20025;-76
2022/03/24 06:48:57;;;;;;;21.00;11.10;;;;;;;13.74;35.82;99874.00;5021674;28;20030;-74
2022/03/24 06:51:23;;;;;;;22.98;13.40;;;;;;;13.96;35.19;99891.13;5024292;28;20099;-67
2022/03/24 06:53:49;;;;;;;25.65;14.13;;;;;;;14.86;34.12;99869.41;5024699;28;20021;-76
2022/03/24 06:56:14;;;;;;;22.25;11.98;;;;;;;14.79;33.30;99885.72;5025438;28;20039;-63
2022/03/24 06:58:40;;;;;;;24.52;12.57;;;;;;;14.79;33.22;99879.44;5027622;28;20029;-72
2022/03/24 07:01:05;;;;;;;19.45;11.30;;;;;;;15.33;32.21;99884.81;5019508;28;20996;-73
2022/03/24 07:03:31;;;;;;;21.00;11.10;;;;;;;15.43;31.61;99895.31;5020228;28;20038;-66
2022/03/24 07:05:56;;;;;;;15.98;10.40;;;;;;;15.93;31.68;99873.94;5026673;28;20041;-69
2022/03/24 07:08:23;;;;;;;17.95;11.18;;;;;;;16.22;30.81;99893.63;5028816;28;20554;-68
2022/03/24 07:10:49;;;;;;;24.60;10.85;;;;;;;16.38;30.74;99889.59;5023115;28;20396;-65
2022/03/24 07:13:16;;;;;;;20.23;10.95;;;;;;;16.33;30.09;99901.16;5025269;28;20148;-73
2022/03/24 07:15:41;;;;;;;18.00;11.13;;;;;;;16.36;30.01;99864.38;5039562;28;20033;-71
2022/03/24 07:18:06;;;;;;;18.08;11.38;;;;;;;16.73;29.85;99873.69;5025427;28;20032;-73
2022/03/24 07:20:34;;;;;;;19.48;11.75;;;;;;;17.47;28.77;99876.84;5023761;28;20033;-70
2022/03/24 07:23:02;;;;;;;18.25;12.10;;;;;;;18.62;27.69;99849.78;5020120;28;20987;-72
2022/03/24 07:25:28;;;;;;;15.55;11.52;;;;;;;18.64;27.96;99865.19;5026314;28;20033;-76
2022/03/24 07:27:54;;;;;;;16.90;11.30;;;;;;;18.51;28.18;99858.78;5029497;28;20029;-76
2022/03/24 07:30:19;;;;;;;18.15;11.63;;;;;;;18.11;28.99;99874.84;5028121;28;20028;-75
2022/03/24 07:32:44;;;;;;;19.60;12.68;;;;;;;18.49;27.73;99866.38;5029099;28;20118;-74
2022/03/24 07:35:11;;;;;;;18.48;11.55;;;;;;;17.93;27.79;99867.44;5029300;28;20037;-73
2022/03/24 07:37:36;;;;;;;19.65;11.68;;;;;;;19.15;26.89;99872.97;5029677;28;20523;-70
2022/03/24 07:40:03;;;;;;;20.65;12.77;;;;;;;19.27;26.56;99871.06;5030246;28;20117;-76
2022/03/24 07:42:28;;;;;;;18.92;12.40;;;;;;;19.40;26.29;99872.78;5029196;28;20033;-74
2022/03/24 07:44:54;;;;;;;19.50;12.15;;;;;;;21.15;25.23;99866.53;5026843;28;20510;-66
2022/03/24 07:47:19;;;;;;;18.67;12.20;;;;;;;21.84;23.82;99883.72;5015553;28;20044;-66
2022/03/24 07:49:46;;;;;;;17.83;12.38;;;;;;;22.22;23.23;99882.16;5014396;28;20056;-65
2022/03/24 07:52:13;;;;;;;18.88;11.23;;;;;;;23.01;22.92;99883.72;5017454;28;20053;-66
2022/03/24 07:54:48;;;;;;;15.90;11.80;;;;;;;22.57;22.37;99880.13;5014632;28;20075;-65
2022/03/24 07:57:13;;;;;;;15.20;11.00;;;;;;;23.35;21.68;99884.38;5023257;28;20083;-67
2022/03/24 07:59:38;;;;;;;16.50;10.55;;;;;;;23.56;21.90;99884.56;5018809;28;20021;-67
2022/03/24 08:02:04;;;;;;;14.27;10.68;;;;;;;23.45;21.74;99891.94;5024220;28;20025;-64
2022/03/24 08:04:30;;;;;;;14.02;10.18;;;;;;;23.82;20.56;99888.41;5020455;28;20400;-73
2022/03/24 08:06:55;;;;;;;17.38;12.02;;;;;;;23.10;21.10;99889.63;5025335;28;20025;-72
2022/03/24 08:09:20;;;;;;;16.70;11.73;;;;;;;22.58;22.19;99884.53;5024060;28;20021;-72
2022/03/24 08:11:48;;;;;;;16.08;12.15;;;;;;;21.80;22.46;99885.31;5026511;28;20021;-73
2022/03/24 08:14:13;;;;;;;17.05;11.68;;;;;;;21.41;23.11;99876.97;5024794;28;20545;-74
2022/03/24 08:16:38;;;;;;;16.25;12.00;;;;;;;22.84;21.63;99892.03;5022587;28;20029;-68
2022/03/24 08:19:04;;;;;;;19.02;12.15;;;;;;;22.11;21.55;99885.78;5025162;28;20021;-72
2022/03/24 08:21:30;;;;;;;21.48;11.65;;;;;;;22.41;22.07;99890.94;5024466;28;20140;-76
2022/03/24 08:23:55;;;;;;;17.83;12.68;;;;;;;22.05;22.22;99840.78;5034886;28;20437;-77
2022/03/24 08:26:21;;;;;;;17.55;12.75;;;;;;;22.55;21.77;99885.88;5034456;28;20029;-76
2022/03/24 08:28:46;;;;;;;19.85;12.73;;;;;;;22.84;21.18;99869.13;5028955;28;20100;-73
2022/03/24 08:31:11;;;;;;;18.05;12.98;;;;;;;22.20;22.14;99872.47;5027216;28;20030;-71
2022/03/24 08:33:37;;;;;;;17.42;11.60;;;;;;;21.56;23.09;99868.13;5031318;28;20018;-74
2022/03/24 08:36:02;;;;;;;18.50;10.98;;;;;;;23.31;21.73;99882.38;5027087;28;20853;-73
2022/03/24 08:38:28;;;;;;;16.63;11.90;;;;;;;23.50;21.50;99864.34;5028840;28;20033;-73
2022/03/24 08:40:53;;;;;;;16.00;12.15;;;;;;;24.01;20.83;99880.53;5028252;28;20053;-74
2022/03/24 08:43:18;;;;;;;17.95;11.77;;;;;;;23.02;22.85;99862.47;5027174;28;20024;-73
2022/03/24 08:45:44;;;;;;;18.90;13.13;;;;;;;23.61;21.27;99866.09;5029960;28;20060;-69
2022/03/24 08:48:09;;;;;;;16.40;12.23;;;;;;;24.52;20.80;99872.56;5027403;28;20395;-69
2022/03/24 08:50:35;;;;;;;21.02;12.48;;;;;;;25.43;19.87;99867.59;5024103;28;20097;-72
2022/03/24 08:53:03;;;;;;;17.33;12.35;;;;;;;25.46;19.19;99887.25;5027264;28;20026;-73
2022/03/24 08:55:28;;;;;;;17.63;12.75;;;;;;;25.01;19.93;99882.44;5026539;28;20029;-70
2022/03/24 08:57:54;;;;;;;17.08;12.85;;;;;;;26.01;19.00;99874.53;5027985;28;20393;-71
2022/03/24 09:00:19;;;;;;;15.88;12.00;;;;;;;26.60;18.33;99859.16;5026915;28;20018;-71
2022/03/24 09:02:50;;;;;;;15.57;12.52;;;;;;;27.43;17.82;99881.78;5026266;28;20049;-67
2022/03/24 09:05:16;;;;;;;17.05;12.88;;;;;;;26.47;18.11;99881.94;5020305;28;20116;-68
2022/03/24 09:07:42;;;;;;;17.60;13.63;;;;;;;27.10;16.98;99882.25;5022455;28;20044;-70
2022/03/24 09:10:10;;;;;;;19.38;13.63;;;;;;;26.74;17.48;99870.47;5027519;28;20104;-74
2022/03/24 09:12:40;;;;;;;21.33;14.20;;;;;;;26.28;17.82;99876.19;5026633;28;20030;-74
2022/03/24 09:15:07;;;;;;;26.05;14.10;;;;;;;25.92;18.15;99880.94;5027605;28;20056;-76
2022/03/24 09:17:35;;;;;;;20.23;14.00;;;;;;;26.61;17.20;99860.00;5026293;28;20029;-75
2022/03/24 09:20:02;;;;;;;17.83;13.68;;;;;;;27.54;16.46;99869.50;5042523;28;20022;-79
2022/03/24 09:22:29;;;;;;;19.17;13.95;;;;;;;27.54;16.48;99855.59;5027884;28;20046;-74
2022/03/24 09:24:55;;;;;;;22.75;14.73;;;;;;;26.46;17.61;99866.38;5020600;28;20047;-70
2022/03/24 09:27:21;;;;;;;20.48;14.40;;;;;;;27.41;16.98;99875.72;5015663;28;20772;-68
2022/03/24 09:29:46;;;;;;;18.05;13.63;;;;;;;25.92;17.58;99876.22;5017785;28;20033;-69
2022/03/24 09:32:12;;;;;;;18.70;14.18;;;;;;;27.15;17.54;99875.84;5024366;28;20446;-65
2022/03/24 09:34:41;;;;;;;20.50;14.43;;;;;;;27.46;18.29;99848.69;5026063;28;20029;-69
2022/03/24 09:37:07;;;;;;;23.40;13.57;;;;;;;28.18;17.60;99860.00;5027905;28;20025;-67
2022/03/24 09:39:33;;;;;;;20.15;13.80;;;;;;;27.91;17.25;99870.88;5028006;28;20179;-68
2022/03/24 09:41:59;;;;;;;16.80;13.60;;;;;;;28.24;17.59;99868.31;5026139;28;20085;-74
2022/03/24 09:44:24;;;;;;;24.98;13.88;;;;;;;28.54;17.52;99865.22;5030217;28;20029;-71
2022/03/24 09:46:50;;;;;;;16.42;13.45;;;;;;;30.06;15.74;99870.81;5028903;28;20025;-67
2022/03/24 09:49:15;;;;;;;18.75;13.80;;;;;;;30.69;16.23;99870.16;5021558;28;20021;-67
2022/03/24 09:51:42;;;;;;;17.00;12.82;;;;;;;30.97;15.15;99847.81;5023005;28;20025;-67
2022/03/24 09:54:08;;;;;;;16.70;13.60;;;;;;;30.38;15.57;99874.72;5018991;28;20017;-67
2022/03/24 09:56:33;;;;;;;16.08;12.48;;;;;;;30.91;15.13;99849.03;5021822;28;20048;-69
2022/03/24 09:58:59;;;;;;;14.55;12.52;;;;;;;31.57;14.08;99838.28;5025066;28;20029;-70
2022/03/24 10:01:24;;;;;;;16.85;11.20;;;;;;;32.76;14.17;99851.59;5024742;28;20097;-68
2022/03/24 10:04:08;;;;;;;15.88;13.43;;;;;;;31.55;14.67;99857.38;5021475;28;20041;-68
2022/03/24 10:06:35;;;;;;;17.02;12.25;;;;;;;31.59;14.17;99862.00;5022422;28;20075;-66
2022/03/24 10:09:01;;;;;;;16.27;12.82;;;;;;;31.59;14.31;99847.19;5018148;28;20086;-69
2022/03/24 10:11:27;;;;;;;17.92;11.98;;;;;;;30.62;14.77;99841.81;5017807;28;20049;-69
2022/03/24 10:13:58;;;;;;;19.67;13.63;;;;;;;29.88;15.09;99844.63;5018336;28;20029;-68
2022/03/24 10:16:32;;;;;;;16.13;12.10;;;;;;;27.64;15.97;99861.06;5020066;28;20912;-68
2022/03/24 10:19:01;;;;;;;17.00;12.60;;;;;;;28.87;15.43;99853.38;5013738;28;20031;-68
2022/03/24 10:21:28;;;;;;;;;;;;;;;29.49;15.52;99851.38;5010565;28;20029;-69
2022/03/24 10:23:55;;;;;;;14.57;11.57;;;;;;;30.08;15.55;99846.22;5011359;28;19920;-68
2022/03/24 10:26:20;;;;;;;14.48;11.82;;;;;;;30.75;14.74;99835.38;5020124;28;20120;-68
2022/03/24 10:28:58;;;;;;;18.80;13.23;;;;;;;29.84;15.16;99826.81;5043252;28;20492;-69
2022/03/24 10:31:35;;;;;;;19.42;12.48;;;;;;;30.55;15.84;99833.03;5017032;28;20048;-71
2022/03/24 10:34:01;;;;;;;15.68;12.70;;;;;;;30.79;14.30;99833.63;5010603;28;20069;-70
2022/03/24 10:36:28;;;;;;;14.60;11.57;;;;;;;30.56;14.46;99827.13;5018117;28;20125;-68
2022/03/24 10:38:56;;;;;;;14.38;11.65;;;;;;;31.00;15.45;99830.41;5018861;28;20029;-68
2022/03/24 10:41:24;;;;;;;13.63;11.85;;;;;;;31.14;14.06;99831.19;5017007;28;20037;-68
2022/03/24 10:43:52;;;;;;;13.82;12.13;;;;;;;31.72;13.46;99832.31;5022928;28;20662;-72
2022/03/24 10:46:19;;;;;;;13.95;11.38;;;;;;;31.93;13.44;99829.81;5026149;28;20056;-68
2022/03/24 10:48:47;;;;;;;15.75;12.25;;;;;;;30.11;13.48;99812.94;5025127;28;20041;-68
2022/03/24 10:51:23;;;;;;;12.23;10.95;;;;;;;30.96;13.21;99826.56;5024287;28;20033;-67
2022/03/24 10:53:48;;;;;;;14.93;12.60;;;;;;;30.22;14.33;99810.75;5025531;28;20079;-68
2022/03/24 10:56:29;;;;;;;16.58;12.43;;;;;;;31.11;14.06;99801.06;5023493;28;20025;-68
2022/03/24 10:58:58;;;;;;;12.20;10.80;;;;;;;31.55;14.29;99812.63;5016541;28;20025;-68
2022/03/24 11:01:24;;;;;;;16.98;12.30;;;;;;;31.05;13.05;99807.06;5014309;28;20033;-67
2022/03/24 11:03:50;;;;;;;12.98;11.57;;;;;;;31.08;13.70;99798.91;5020497;28;20104;-68
2022/03/24 11:06:20;;;;;;;13.85;9.63;;;;;;;32.02;13.00;99815.91;5024104;28;20041;-67
2022/03/24 11:08:58;;;;;;;14.80;10.98;;;;;;;32.39;12.32;99816.53;5024589;28;20021;-68
2022/03/24 11:11:23;;;;;;;12.03;9.50;;;;;;;32.48;12.13;99811.81;5017943;28;20098;-68
2022/03/24 11:13:51;;;;;;;13.07;10.45;;;;;;;31.52;12.00;99808.50;5024641;28;20121;-70
2022/03/24 11:16:19;;;;;;;10.37;8.97;;;;;;;32.58;11.34;99807.88;5025055;28;20034;-70
2022/03/24 11:18:45;;;;;;;12.48;9.82;;;;;;;31.94;12.14;99811.06;5024353;28;20070;-69
2022/03/24 11:21:20;;;;;;;13.07;11.32;;;;;;;33.53;10.46;99796.72;5024725;28;20483;-69